createdAt,value
2022-12-08T00:02:53.003Z,99586.44
2022-12-08T00:08:13.629Z,99565.47
2022-12-08T00:13:15.498Z,99526.66
2022-12-08T00:18:17.298Z,99566.75
2022-12-08T00:23:19.092Z,99533.31
2022-12-08T00:28:20.938Z,99511.50
2022-12-08T00:33:22.801Z,99508.63
2022-12-08T00:38:24.479Z,99536.97
2022-12-08T00:43:26.869Z,99548.94
2022-12-08T00:48:28.623Z,99506.00
2022-12-08T00:53:31.823Z,99479.22
2022-12-08T00:58:33.625Z,99489.75
2022-12-08T01:03:35.462Z,99484.53
2022-12-08T01:08:38.117Z,99462.59
2022-12-08T01:13:40.088Z,99490.44
2022-12-08T01:18:41.863Z,99512.22
2022-12-08T01:23:44.028Z,99496.91
2022-12-08T01:28:47.137Z,99481.81
2022-12-08T01:33:48.994Z,99487.28
2022-12-08T01:38:51.409Z,99495.47
2022-12-08T01:44:04.390Z,99490.06
2022-12-08T01:49:17.948Z,99482.63
2022-12-08T01:54:23.523Z,99543.31
2022-12-08T01:59:26.208Z,99514.00
2022-12-08T02:04:27.920Z,99532.91
2022-12-08T02:09:29.672Z,99539.66
2022-12-08T02:14:32.348Z,99493.13
2022-12-08T02:20:05.804Z,99500.94
2022-12-08T02:25:19.742Z,99499.72
2022-12-08T02:30:25.805Z,99459.19
2022-12-08T02:35:36.503Z,99429.47
2022-12-08T02:41:01.227Z,99454.16
2022-12-08T02:46:07.586Z,99448.00
2022-12-08T02:51:09.358Z,99419.38
2022-12-08T02:56:41.647Z,99419.94
2022-12-08T03:02:01.428Z,99425.53
2022-12-08T03:07:33.835Z,99464.03
2022-12-08T03:12:48.138Z,99438.44
2022-12-08T03:17:56.566Z,99422.81
2022-12-08T03:23:00.352Z,99449.34
2022-12-08T03:28:02.288Z,99445.16
2022-12-08T03:33:17.673Z,99432.47
2022-12-08T03:38:19.832Z,99416.78
2022-12-08T03:43:21.694Z,99432.69
2022-12-08T03:48:23.430Z,99426.63
2022-12-08T03:53:26.057Z,99433.00
2022-12-08T03:58:30.770Z,99429.44
2022-12-08T04:03:34.809Z,99426.84
2022-12-08T04:08:36.545Z,99406.75
2022-12-08T04:13:39.863Z,99416.56
2022-12-08T04:18:41.575Z,99393.03
2022-12-08T04:23:43.726Z,99395.03
2022-12-08T04:28:45.566Z,99380.81
2022-12-08T04:33:47.388Z,99398.25
2022-12-08T04:38:49.101Z,99383.09
2022-12-08T04:43:50.841Z,99403.94
2022-12-08T04:48:52.585Z,99424.03
2022-12-08T04:53:54.451Z,99396.19
2022-12-08T04:58:56.113Z,99404.16
2022-12-08T05:05:13.652Z,99435.22
2022-12-08T05:10:15.350Z,99406.13
2022-12-08T05:15:17.046Z,99413.75
2022-12-08T05:20:18.700Z,99396.38
2022-12-08T05:25:20.312Z,99399.03
2022-12-08T05:30:21.906Z,99383.09
2022-12-08T05:35:23.512Z,99394.91
2022-12-08T05:40:25.102Z,99388.41
2022-12-08T05:45:26.833Z,99390.78
2022-12-08T05:50:28.619Z,99374.63
2022-12-08T05:55:30.475Z,99392.88
2022-12-08T06:00:34.836Z,99419.22
2022-12-08T06:05:36.514Z,99384.59
2022-12-08T06:10:39.694Z,99387.22
2022-12-08T06:15:41.632Z,99390.59
2022-12-08T06:20:43.289Z,99363.47
2022-12-08T06:25:45.053Z,99385.72
2022-12-08T06:30:46.824Z,99372.66
2022-12-08T06:35:48.666Z,99369.06
2022-12-08T06:40:54.838Z,99370.31
2022-12-08T06:45:56.574Z,99370.41
2022-12-08T06:50:58.292Z,99362.03
2022-12-08T06:56:00.229Z,99383.69
2022-12-08T07:01:06.885Z,99378.00
2022-12-08T07:06:08.694Z,99368.66
2022-12-08T07:11:14.218Z,99372.16
2022-12-08T07:16:20.106Z,99387.69
2022-12-08T07:21:21.874Z,99376.31
2022-12-08T07:26:23.728Z,99413.66
2022-12-08T07:31:26.490Z,99431.75
2022-12-08T07:36:28.378Z,99441.97
2022-12-08T07:41:30.134Z,99424.22
2022-12-08T07:46:32.007Z,99381.19
2022-12-08T07:51:33.767Z,99396.19
2022-12-08T07:56:35.591Z,99359.09
2022-12-08T08:01:37.490Z,99369.13
2022-12-08T08:06:39.423Z,99346.94
2022-12-08T08:11:41.228Z,99372.50
2022-12-08T08:16:46.889Z,99300.72
2022-12-08T08:21:48.734Z,99314.50
2022-12-08T08:26:50.727Z,99294.47
2022-12-08T08:31:52.496Z,99292.50
2022-12-08T08:36:54.296Z,99305.16
2022-12-08T08:41:55.983Z,99302.06
2022-12-08T08:46:57.748Z,99317.78
2022-12-08T08:51:59.539Z,99287.28
2022-12-08T08:57:01.829Z,99304.44
2022-12-08T09:02:03.706Z,99319.97
2022-12-08T09:07:05.552Z,99285.34
2022-12-08T09:12:07.642Z,99288.19
2022-12-08T09:17:09.442Z,99312.72
2022-12-08T09:22:11.103Z,99319.09
2022-12-08T09:27:12.798Z,99293.81
2022-12-08T09:32:14.524Z,99292.50
2022-12-08T09:37:16.312Z,99280.88
2022-12-08T09:42:30.983Z,99286.31
2022-12-08T09:47:39.765Z,99288.25
2022-12-08T09:52:47.117Z,99288.06
2022-12-08T09:58:00.141Z,99278.84
2022-12-08T10:03:02.030Z,99281.44
2022-12-08T10:08:21.260Z,99258.81
2022-12-08T10:13:45.071Z,99259.53
2022-12-08T10:18:46.746Z,99270.47
2022-12-08T10:23:53.558Z,99253.63
2022-12-08T10:29:01.341Z,99261.78
2022-12-08T10:34:16.410Z,99240.31
2022-12-08T10:39:37.405Z,99233.97
2022-12-08T10:44:53.432Z,99249.81
2022-12-08T10:50:18.967Z,99272.19
2022-12-08T10:55:21.750Z,99234.41
2022-12-08T11:06:21.676Z,99250.38
2022-12-08T11:11:47.286Z,99219.66
2022-12-08T11:16:51.521Z,99246.06
2022-12-08T11:21:53.443Z,99206.44
2022-12-08T11:27:02.359Z,99217.84
2022-12-08T11:32:12.874Z,99187.75
2022-12-08T11:37:35.963Z,99231.53
2022-12-08T11:42:54.997Z,99178.34
2022-12-08T11:48:19.564Z,99177.47
2022-12-08T11:53:30.023Z,99178.47
2022-12-08T11:58:39.348Z,99192.19
2022-12-08T12:03:47.367Z,99168.47
2022-12-08T12:09:11.361Z,99197.59
2022-12-08T12:14:34.875Z,99167.31
2022-12-08T12:19:39.551Z,99193.72
2022-12-08T12:24:44.324Z,99168.59
2022-12-08T12:30:05.085Z,99169.47
2022-12-08T12:35:17.956Z,99180.44
2022-12-08T12:40:24.330Z,99173.19
2022-12-08T12:45:26.033Z,99193.75
2022-12-08T12:50:33.731Z,99165.41
2022-12-08T12:55:56.652Z,99172.97
2022-12-08T13:01:10.421Z,99192.69
2022-12-08T13:06:15.084Z,99176.84
2022-12-08T13:11:17.047Z,99193.88
2022-12-08T13:16:24.164Z,99185.00
2022-12-08T13:21:36.890Z,99202.34
2022-12-08T13:27:03.343Z,99207.53
2022-12-08T13:33:09.642Z,99201.31
2022-12-08T13:38:06.975Z,99189.94
2022-12-08T13:43:45.198Z,99206.50
2022-12-08T13:51:23.859Z,99219.91
2022-12-08T13:55:12.245Z,99200.81
2022-12-08T13:59:48.496Z,99217.31
2022-12-08T14:10:20.405Z,99192.03
2022-12-08T14:15:23.222Z,99195.69
2022-12-08T14:20:27.865Z,99196.81
2022-12-08T14:25:30.169Z,99202.19
2022-12-08T14:30:33.178Z,99211.88
2022-12-08T14:35:37.095Z,99202.03
2022-12-08T14:40:40.007Z,99223.22
2022-12-08T14:45:41.633Z,99234.03
2022-12-08T14:51:03.325Z,99217.59
2022-12-08T14:56:26.793Z,99249.91
2022-12-08T15:01:28.865Z,99217.72
2022-12-08T15:06:30.658Z,99238.16
2022-12-08T15:11:35.116Z,99232.16
2022-12-08T15:16:36.724Z,99223.53
2022-12-08T15:21:38.977Z,99239.13
2022-12-08T15:26:49.079Z,99212.94
2022-12-08T15:31:52.812Z,99248.28
2022-12-08T15:36:55.079Z,99249.59
2022-12-08T15:41:57.312Z,99219.56
2022-12-08T15:47:00.035Z,99246.66
2022-12-08T15:52:11.321Z,99230.13
2022-12-08T15:57:59.092Z,99216.38
2022-12-08T16:03:18.395Z,99227.56
2022-12-08T16:08:38.297Z,99216.00
2022-12-08T16:14:16.663Z,99235.22
2022-12-08T16:19:17.106Z,99203.16
2022-12-08T16:24:18.954Z,99211.34
2022-12-08T16:29:22.612Z,99239.50
2022-12-08T16:34:24.212Z,99207.25
2022-12-08T16:39:26.085Z,99233.50
2022-12-08T16:44:27.707Z,99179.44
2022-12-08T16:49:29.363Z,99203.25
2022-12-08T16:54:31.035Z,99170.75
2022-12-08T16:59:32.657Z,99197.06
2022-12-08T17:04:34.325Z,99194.41
2022-12-08T17:09:36.030Z,99193.44
2022-12-08T17:14:37.783Z,99158.84
2022-12-08T17:19:39.537Z,99168.81
2022-12-08T17:24:41.157Z,99173.56
2022-12-08T17:29:42.720Z,99156.41
2022-12-08T17:34:44.637Z,99158.75
2022-12-08T17:39:46.395Z,99156.50
2022-12-08T17:44:47.954Z,99181.06
2022-12-08T17:49:49.647Z,99148.22
2022-12-08T17:54:51.241Z,99189.34
2022-12-08T17:59:52.927Z,99194.78
2022-12-08T18:04:54.564Z,99216.91
2022-12-08T18:09:56.560Z,99212.06
2022-12-08T18:14:58.237Z,99219.75
2022-12-08T18:19:59.844Z,99216.75
2022-12-08T18:25:01.426Z,99170.78
2022-12-08T18:30:04.675Z,99223.50
2022-12-08T18:35:06.990Z,99153.97
2022-12-08T18:40:09.643Z,99193.88
2022-12-08T18:45:11.488Z,99210.31
2022-12-08T18:50:13.259Z,99167.13
2022-12-08T18:55:15.680Z,99169.72
2022-12-08T19:00:19.386Z,99153.44
2022-12-08T19:05:20.982Z,99131.84
2022-12-08T19:10:22.582Z,99134.19
2022-12-08T19:15:24.489Z,99158.97
2022-12-08T19:20:27.426Z,99149.38
2022-12-08T19:25:29.051Z,99158.44
2022-12-08T19:30:33.415Z,99145.47
2022-12-08T19:35:36.270Z,99155.72
2022-12-08T19:40:58.956Z,99180.63
2022-12-08T19:46:00.777Z,99098.13
2022-12-08T19:51:02.525Z,99158.97
2022-12-08T19:56:04.824Z,99126.63
2022-12-08T20:01:06.615Z,99119.97
2022-12-08T20:06:15.601Z,99112.06
2022-12-08T20:11:17.319Z,99111.56
2022-12-08T20:16:19.346Z,99122.28
2022-12-08T20:21:22.091Z,99118.38
2022-12-08T20:26:24.508Z,99106.13
2022-12-08T20:31:29.616Z,99156.09
2022-12-08T20:36:31.627Z,99114.59
2022-12-08T20:41:38.791Z,99141.09
2022-12-08T20:46:44.985Z,99141.94
2022-12-08T20:51:49.927Z,99148.72
2022-12-08T20:56:52.061Z,99119.44
2022-12-08T21:01:54.149Z,99153.50
2022-12-08T21:06:56.044Z,99148.72
2022-12-08T21:11:57.831Z,99132.88
2022-12-08T21:16:59.607Z,99157.53
2022-12-08T21:22:01.528Z,99120.38
2022-12-08T21:27:03.394Z,99156.16
2022-12-08T21:32:05.596Z,99141.53
2022-12-08T21:37:07.431Z,99152.25
2022-12-08T21:42:33.887Z,99158.41
2022-12-08T21:47:36.191Z,99136.84
2022-12-08T21:52:39.820Z,99145.75
2022-12-08T21:57:41.744Z,99122.78
2022-12-08T22:02:43.795Z,99134.72
2022-12-08T22:07:45.737Z,99118.66
2022-12-08T22:12:47.620Z,99109.91
2022-12-08T22:17:49.482Z,99105.94
2022-12-08T22:22:51.165Z,99073.88
2022-12-08T22:27:52.837Z,99091.06
2022-12-08T22:32:54.778Z,99093.00
2022-12-08T22:37:56.502Z,99092.25
2022-12-08T22:42:58.306Z,99078.00
2022-12-08T22:47:59.974Z,99075.66
2022-12-08T22:53:02.037Z,99087.91
2022-12-08T22:58:03.737Z,99061.06
2022-12-08T23:03:06.371Z,99054.34
2022-12-08T23:08:09.376Z,99059.41
2022-12-08T23:13:12.434Z,99054.81
2022-12-08T23:18:16.771Z,99079.69
2022-12-08T23:23:18.382Z,99095.50
2022-12-08T23:28:20.211Z,99070.56
2022-12-08T23:33:22.002Z,99059.03
2022-12-08T23:38:24.126Z,99064.44
2022-12-08T23:43:25.782Z,99033.09
2022-12-08T23:48:29.222Z,99039.84
2022-12-08T23:53:32.431Z,99036.16
2022-12-08T23:58:35.554Z,99021.50
